createdAt,value
2023-03-25T00:01:16.198Z,99371.78
2023-03-25T00:03:31.027Z,99367.06
2023-03-25T00:05:43.505Z,99369.45
2023-03-25T00:07:56.532Z,99363.83
2023-03-25T00:10:10.098Z,99364.90
2023-03-25T00:12:22.618Z,99367.56
2023-03-25T00:14:35.259Z,99360.48
2023-03-25T00:16:48.552Z,99357.48
2023-03-25T00:19:02.017Z,99355.88
2023-03-25T00:21:14.835Z,99352.33
2023-03-25T00:23:28.655Z,99348.44
2023-03-25T00:25:41.862Z,99342.44
2023-03-25T00:27:54.426Z,99335.37
2023-03-25T00:30:08.487Z,99335.17
2023-03-25T00:32:21.041Z,99337.08
2023-03-25T00:34:35.197Z,99337.03
2023-03-25T00:36:47.724Z,99336.33
2023-03-25T00:39:00.330Z,99335.71
2023-03-25T00:41:14.413Z,99336.68
2023-03-25T00:43:26.945Z,99332.36
2023-03-25T00:45:39.440Z,99335.13
2023-03-25T00:47:52.032Z,99340.84
2023-03-25T00:50:05.998Z,99339.98
2023-03-25T00:52:19.459Z,99337.56
2023-03-25T00:54:34.149Z,99337.08
2023-03-25T00:56:46.738Z,99332.88
2023-03-25T00:58:59.357Z,99340.73
2023-03-25T01:01:15.598Z,99336.23
2023-03-25T01:03:31.421Z,99336.07
2023-03-25T01:05:44.534Z,99331.98
2023-03-25T01:07:57.047Z,99332.31
2023-03-25T01:10:10.028Z,99325.45
2023-03-25T01:12:22.733Z,99326.77
2023-03-25T01:14:35.257Z,99328.55
2023-03-25T01:16:47.883Z,99328.57
2023-03-25T01:19:00.519Z,99328.23
2023-03-25T01:21:13.514Z,99326.27
2023-03-25T01:23:26.066Z,99325.54
2023-03-25T01:25:38.793Z,99321.30
2023-03-25T01:27:51.335Z,99323.11
2023-03-25T01:30:04.255Z,99322.34
2023-03-25T01:32:16.820Z,99316.09
2023-03-25T01:34:33.103Z,99315.63
2023-03-25T01:36:46.728Z,99310.54
2023-03-25T01:39:01.331Z,99314.46
2023-03-25T01:41:13.954Z,99311.86
2023-03-25T01:43:26.556Z,99311.52
2023-03-25T01:45:39.514Z,99315.64
2023-03-25T01:48:00.305Z,99309.84
2023-03-25T01:50:14.540Z,99308.92
2023-03-25T01:52:27.717Z,99305.73
2023-03-25T01:54:41.713Z,99301.27
2023-03-25T01:56:55.038Z,99296.39
2023-03-25T01:59:11.096Z,99290.64
2023-03-25T02:01:26.591Z,99285.54
2023-03-25T02:03:46.581Z,99286.06
2023-03-25T02:06:05.894Z,99285.17
2023-03-25T02:08:20.782Z,99286.59
2023-03-25T02:10:33.851Z,99288.33
2023-03-25T02:12:47.037Z,99286.22
2023-03-25T02:15:03.064Z,99290.48
2023-03-25T02:17:46.585Z,99285.92
2023-03-25T02:20:14.926Z,99285.33
2023-03-25T02:22:57.577Z,99287.05
2023-03-25T02:25:35.732Z,99289.23
2023-03-25T02:28:00.282Z,99290.23
2023-03-25T02:30:38.797Z,99289.56
2023-03-25T02:33:07.188Z,99286.72
2023-03-25T02:35:49.790Z,99279.04
2023-03-25T02:38:09.493Z,99279.04
2023-03-25T02:40:27.913Z,99278.02
2023-03-25T02:42:54.528Z,99280.48
2023-03-25T02:45:15.537Z,99283.08
2023-03-25T02:47:34.654Z,99281.53
2023-03-25T02:49:55.092Z,99276.59
2023-03-25T02:52:28.827Z,99275.98
2023-03-25T02:54:45.084Z,99273.75
2023-03-25T02:56:59.260Z,99273.16
2023-03-25T02:59:16.725Z,99279.56
2023-03-25T03:01:29.454Z,99280.80
2023-03-25T03:03:42.089Z,99282.11
2023-03-25T03:06:02.045Z,99285.67
2023-03-25T03:08:24.159Z,99284.13
2023-03-25T03:10:46.827Z,99282.63
2023-03-25T03:13:41.038Z,99284.27
2023-03-25T03:16:21.967Z,99281.91
2023-03-25T03:18:53.434Z,99279.10
2023-03-25T03:21:16.530Z,99273.70
2023-03-25T03:23:42.457Z,99277.96
2023-03-25T03:26:27.380Z,99282.21
2023-03-25T03:28:54.246Z,99282.30
2023-03-25T03:31:48.804Z,99282.43
2023-03-25T03:34:05.607Z,99288.00
2023-03-25T03:36:22.363Z,99292.69
2023-03-25T03:38:40.737Z,99296.17
2023-03-25T03:40:58.232Z,99292.66
2023-03-25T03:43:17.026Z,99288.20
2023-03-25T03:45:35.550Z,99285.41
2023-03-25T03:47:52.470Z,99283.48
2023-03-25T03:50:09.626Z,99286.34
2023-03-25T03:52:28.555Z,99286.02
2023-03-25T03:54:50.865Z,99290.48
2023-03-25T03:57:11.546Z,99291.89
2023-03-25T03:59:41.359Z,99293.39
2023-03-25T04:02:01.601Z,99296.81
2023-03-25T04:04:23.854Z,99289.95
2023-03-25T04:07:04.820Z,99288.34
2023-03-25T04:09:28.216Z,99291.23
2023-03-25T04:11:47.063Z,99293.44
2023-03-25T04:14:02.567Z,99291.65
2023-03-25T04:16:15.601Z,99293.17
2023-03-25T04:18:28.578Z,99295.70
2023-03-25T04:20:44.676Z,99295.09
2023-03-25T04:22:57.271Z,99294.08
2023-03-25T04:25:09.843Z,99295.46
2023-03-25T04:27:29.695Z,99294.09
2023-03-25T04:29:44.028Z,99300.92
2023-03-25T04:31:57.706Z,99301.57
2023-03-25T04:34:10.649Z,99302.02
2023-03-25T04:36:24.484Z,99301.41
2023-03-25T04:38:37.782Z,99301.92
2023-03-25T04:40:50.410Z,99300.98
2023-03-25T04:43:03.016Z,99304.07
2023-03-25T04:45:19.266Z,99307.89
2023-03-25T04:47:32.446Z,99314.46
2023-03-25T04:49:45.373Z,99313.13
2023-03-25T04:51:59.121Z,99313.70
2023-03-25T04:54:12.062Z,99315.03
2023-03-25T04:56:24.769Z,99308.83
2023-03-25T04:58:37.277Z,99312.22
2023-03-25T05:00:51.814Z,99311.77
2023-03-25T05:03:04.374Z,99306.83
2023-03-25T05:05:19.603Z,99311.52
2023-03-25T05:07:33.357Z,99316.09
2023-03-25T05:09:45.950Z,99319.63
2023-03-25T05:11:58.716Z,99321.13
2023-03-25T05:14:14.027Z,99319.85
2023-03-25T05:16:26.862Z,99317.63
2023-03-25T05:18:39.455Z,99316.63
2023-03-25T05:20:53.467Z,99311.54
2023-03-25T05:23:12.211Z,99312.95
2023-03-25T05:25:24.843Z,99311.80
2023-03-25T05:27:38.482Z,99310.79
2023-03-25T05:29:51.919Z,99302.88
2023-03-25T05:32:04.698Z,99299.95
2023-03-25T05:34:17.675Z,99301.41
2023-03-25T05:36:31.313Z,99304.14
2023-03-25T05:38:44.342Z,99302.91
2023-03-25T05:40:56.935Z,99304.71
2023-03-25T05:43:09.537Z,99304.31
2023-03-25T05:45:22.822Z,99306.64
2023-03-25T05:47:35.450Z,99309.23
2023-03-25T05:49:48.852Z,99313.09
2023-03-25T05:52:01.810Z,99314.06
2023-03-25T05:54:14.366Z,99320.27
2023-03-25T05:56:26.946Z,99320.59
2023-03-25T05:58:39.536Z,99319.53
2023-03-25T06:00:52.315Z,99320.05
2023-03-25T06:03:07.493Z,99307.66
2023-03-25T06:05:23.710Z,99312.42
2023-03-25T06:07:37.570Z,99307.27
2023-03-25T06:09:50.193Z,99303.83
2023-03-25T06:12:03.989Z,99304.87
2023-03-25T06:14:16.563Z,99304.27
2023-03-25T06:16:29.646Z,99308.05
2023-03-25T06:18:42.678Z,99306.61
2023-03-25T06:20:57.639Z,99311.20
2023-03-25T06:23:10.261Z,99309.31
2023-03-25T06:25:23.563Z,99305.27
2023-03-25T06:27:40.222Z,99306.62
2023-03-25T06:29:52.789Z,99309.77
2023-03-25T06:32:05.899Z,99312.00
2023-03-25T06:34:18.494Z,99308.06
2023-03-25T06:36:31.471Z,99307.69
2023-03-25T06:38:46.710Z,99310.40
2023-03-25T06:40:59.550Z,99306.29
2023-03-25T06:43:12.111Z,99310.58
2023-03-25T06:45:24.673Z,99312.36
2023-03-25T06:47:37.456Z,99308.48
2023-03-25T06:49:50.321Z,99306.74
2023-03-25T06:52:02.905Z,99311.38
2023-03-25T06:54:15.646Z,99313.41
2023-03-25T06:56:28.363Z,99314.85
2023-03-25T06:58:41.843Z,99311.23
2023-03-25T07:00:54.899Z,99301.83
2023-03-25T07:03:07.634Z,99298.66
2023-03-25T07:05:20.365Z,99296.69
2023-03-25T07:07:33.065Z,99295.64
2023-03-25T07:09:45.604Z,99295.63
2023-03-25T07:11:58.279Z,99305.77
2023-03-25T07:14:10.947Z,99300.38
2023-03-25T07:16:23.671Z,99302.23
2023-03-25T07:18:36.414Z,99301.17
2023-03-25T07:20:49.079Z,99300.31
2023-03-25T07:23:01.645Z,99302.27
2023-03-25T07:25:14.183Z,99302.73
2023-03-25T07:27:26.844Z,99305.92
2023-03-25T07:29:39.887Z,99306.85
2023-03-25T07:31:52.488Z,99308.13
2023-03-25T07:34:05.694Z,99308.92
2023-03-25T07:36:18.609Z,99307.63
2023-03-25T07:38:31.173Z,99306.84
2023-03-25T07:40:43.709Z,99308.17
2023-03-25T07:43:04.996Z,99306.23
2023-03-25T07:45:17.650Z,99308.48
2023-03-25T07:47:30.329Z,99310.78
2023-03-25T07:49:43.925Z,99309.00
2023-03-25T07:51:56.502Z,99310.44
2023-03-25T07:54:09.616Z,99311.84
2023-03-25T07:56:22.167Z,99310.39
2023-03-25T07:58:34.753Z,99304.96
2023-03-25T08:00:47.424Z,99301.68
2023-03-25T08:03:00.049Z,99299.67
2023-03-25T08:05:12.712Z,99301.57
2023-03-25T08:07:25.557Z,99302.80
2023-03-25T08:09:38.088Z,99304.49
2023-03-25T08:11:51.430Z,99304.93
2023-03-25T08:14:04.051Z,99304.75
2023-03-25T08:16:16.623Z,99302.05
2023-03-25T08:18:29.309Z,99297.80
2023-03-25T08:20:42.113Z,99291.86
2023-03-25T08:22:54.655Z,99291.02
2023-03-25T08:25:07.720Z,99296.43
2023-03-25T08:27:20.444Z,99298.16
2023-03-25T08:29:34.502Z,99298.33
2023-03-25T08:31:52.532Z,99297.90
2023-03-25T08:34:05.916Z,99303.73
2023-03-25T08:36:23.286Z,99304.30
2023-03-25T08:38:36.042Z,99301.66
2023-03-25T08:40:48.714Z,99299.02
2023-03-25T08:43:04.191Z,99301.15
2023-03-25T08:45:16.763Z,99302.79
2023-03-25T08:47:29.457Z,99307.61
2023-03-25T08:49:42.042Z,99312.92
2023-03-25T08:51:54.858Z,99306.42
2023-03-25T08:54:07.440Z,99307.92
2023-03-25T08:56:20.454Z,99306.30
2023-03-25T08:58:33.011Z,99307.91
2023-03-25T09:00:45.634Z,99302.21
2023-03-25T09:02:59.135Z,99296.87
2023-03-25T09:05:13.237Z,99299.86
2023-03-25T09:07:26.009Z,99296.77
2023-03-25T09:09:38.824Z,99300.17
2023-03-25T09:11:51.432Z,99294.99
2023-03-25T09:14:05.141Z,99297.96
2023-03-25T09:16:17.763Z,99298.73
2023-03-25T09:18:31.981Z,99296.29
2023-03-25T09:20:48.210Z,99303.45
2023-03-25T09:23:00.794Z,99302.59
2023-03-25T09:25:14.030Z,99303.83
2023-03-25T09:27:26.862Z,99307.42
2023-03-25T09:29:39.552Z,99307.78
2023-03-25T09:31:52.051Z,99303.84
2023-03-25T09:34:04.711Z,99302.75
2023-03-25T09:36:17.240Z,99307.12
2023-03-25T09:38:30.259Z,99307.54
2023-03-25T09:40:44.071Z,99309.98
2023-03-25T09:42:59.577Z,99313.62
2023-03-25T09:45:35.777Z,99310.95
2023-03-25T09:47:56.335Z,99310.11
2023-03-25T09:50:14.737Z,99308.80
2023-03-25T09:52:32.465Z,99308.25
2023-03-25T09:54:53.708Z,99307.43
2023-03-25T09:57:11.376Z,99306.02
2023-03-25T09:59:34.746Z,99305.54
2023-03-25T10:02:01.943Z,99297.92
2023-03-25T10:04:26.449Z,99298.49
2023-03-25T10:07:09.237Z,99298.84
2023-03-25T10:10:13.408Z,99296.20
2023-03-25T10:12:47.692Z,99294.92
2023-03-25T10:15:32.649Z,99292.76
2023-03-25T10:17:56.475Z,99295.67
2023-03-25T10:20:16.654Z,99292.13
2023-03-25T10:22:44.693Z,99293.09
2023-03-25T10:25:07.000Z,99286.77
2023-03-25T10:27:46.704Z,99283.48
2023-03-25T10:30:06.346Z,99285.48
2023-03-25T10:32:31.375Z,99285.20
2023-03-25T10:34:52.769Z,99275.67
2023-03-25T10:37:12.506Z,99271.33
2023-03-25T10:39:34.204Z,99267.73
2023-03-25T10:42:01.725Z,99261.59
2023-03-25T10:44:14.329Z,99258.41
2023-03-25T10:46:46.823Z,99256.38
2023-03-25T10:48:59.661Z,99257.05
2023-03-25T10:51:16.395Z,99255.23
2023-03-25T10:53:29.678Z,99249.23
2023-03-25T10:55:42.417Z,99252.13
2023-03-25T10:57:56.184Z,99244.62
2023-03-25T11:00:22.783Z,99242.19
2023-03-25T11:02:35.563Z,99250.50
2023-03-25T11:04:52.408Z,99235.83
2023-03-25T11:07:16.520Z,99237.63
2023-03-25T11:09:32.590Z,99240.59
2023-03-25T11:11:46.693Z,99235.68
2023-03-25T11:13:59.262Z,99233.96
2023-03-25T11:16:11.969Z,99231.14
2023-03-25T11:18:27.613Z,99218.50
2023-03-25T11:20:47.918Z,99230.89
2023-03-25T11:23:06.278Z,99234.36
2023-03-25T11:25:33.000Z,99228.36
2023-03-25T11:27:55.461Z,99233.92
2023-03-25T11:30:19.048Z,99230.80
2023-03-25T11:32:37.539Z,99227.84
2023-03-25T11:34:51.902Z,99221.37
2023-03-25T11:37:19.790Z,99219.11
2023-03-25T11:39:42.421Z,99217.45
2023-03-25T11:41:55.260Z,99212.98
2023-03-25T11:44:21.776Z,99213.25
2023-03-25T11:46:41.368Z,99210.02
2023-03-25T11:48:54.016Z,99205.45
2023-03-25T11:51:35.705Z,99205.11
2023-03-25T11:53:59.283Z,99216.61
2023-03-25T11:56:17.020Z,99221.40
2023-03-25T11:58:33.480Z,99229.84
2023-03-25T12:00:51.565Z,99236.16
2023-03-25T12:03:20.959Z,99241.70
2023-03-25T12:05:33.977Z,99243.01
2023-03-25T12:07:51.660Z,99240.61
2023-03-25T12:10:07.453Z,99241.30
2023-03-25T12:12:47.286Z,99248.36
2023-03-25T12:15:20.725Z,99258.24
2023-03-25T12:17:36.298Z,99276.66
2023-03-25T12:20:22.020Z,99281.67
2023-03-25T12:23:13.916Z,99302.38
2023-03-25T12:25:53.805Z,99309.28
2023-03-25T12:28:30.737Z,99321.65
2023-03-25T12:30:46.427Z,99324.29
2023-03-25T12:33:26.366Z,99328.44
2023-03-25T12:35:58.692Z,99330.66
2023-03-25T12:38:22.886Z,99328.09
2023-03-25T12:40:47.612Z,99330.23
2023-03-25T12:43:06.200Z,99338.39
2023-03-25T12:45:39.788Z,99334.05
2023-03-25T12:48:04.445Z,99324.23
2023-03-25T12:50:43.849Z,99322.92
2023-03-25T12:53:33.923Z,99319.27
2023-03-25T12:56:02.950Z,99306.04
2023-03-25T12:58:31.062Z,99305.08
2023-03-25T13:01:11.206Z,99304.79
2023-03-25T13:03:37.641Z,99301.59
2023-03-25T13:05:58.419Z,99303.89
2023-03-25T13:08:44.522Z,99306.69
2023-03-25T13:11:06.597Z,99309.59
2023-03-25T13:13:25.756Z,99308.81
2023-03-25T13:15:52.801Z,99308.27
2023-03-25T13:18:44.851Z,99306.52
2023-03-25T13:21:14.478Z,99301.46
2023-03-25T13:23:30.429Z,99293.20
2023-03-25T13:25:57.465Z,99286.81
2023-03-25T13:28:16.546Z,99286.27
2023-03-25T13:30:40.969Z,99283.33
2023-03-25T13:32:58.772Z,99282.63
2023-03-25T13:35:16.883Z,99271.63
2023-03-25T13:37:37.032Z,99272.74
2023-03-25T13:40:00.929Z,99276.06
2023-03-25T13:42:21.183Z,99276.93
2023-03-25T13:44:40.715Z,99271.90
2023-03-25T13:47:03.404Z,99278.02
2023-03-25T13:49:26.224Z,99275.26
2023-03-25T13:51:39.266Z,99277.05
2023-03-25T13:53:51.868Z,99272.23
2023-03-25T13:56:07.150Z,99273.98
2023-03-25T13:59:02.125Z,99271.94
2023-03-25T14:01:41.251Z,99273.36
2023-03-25T14:04:27.225Z,99273.39
2023-03-25T14:07:12.458Z,99267.69
2023-03-25T14:09:43.888Z,99259.92
2023-03-25T14:12:17.298Z,99252.33
2023-03-25T14:14:36.610Z,99252.46
2023-03-25T14:16:58.046Z,99252.35
2023-03-25T14:19:18.107Z,99248.48
2023-03-25T14:21:36.508Z,99248.88
2023-03-25T14:24:00.214Z,99249.23
2023-03-25T14:26:17.669Z,99247.39
2023-03-25T14:28:40.265Z,99246.55
2023-03-25T14:31:14.574Z,99245.52
2023-03-25T14:33:27.275Z,99253.61
2023-03-25T14:35:41.480Z,99254.98
2023-03-25T14:37:54.129Z,99254.70
2023-03-25T14:40:55.379Z,99257.48
2023-03-25T14:43:24.004Z,99255.54
2023-03-25T14:45:50.904Z,99266.80
2023-03-25T14:48:23.012Z,99276.73
2023-03-25T14:50:37.687Z,99293.91
2023-03-25T14:52:52.952Z,99296.12
2023-03-25T14:55:31.014Z,99297.70
2023-03-25T14:57:45.561Z,99298.95
2023-03-25T15:00:14.214Z,99297.63
2023-03-25T15:02:30.016Z,99304.05
2023-03-25T15:04:44.040Z,99303.63
2023-03-25T15:06:57.360Z,99310.09
2023-03-25T15:09:12.964Z,99314.82
2023-03-25T15:11:32.198Z,99311.66
2023-03-25T15:13:52.842Z,99297.11
2023-03-25T15:16:31.930Z,99293.33
2023-03-25T15:18:44.819Z,99295.28
2023-03-25T15:21:12.413Z,99288.92
2023-03-25T15:23:34.472Z,99293.75
2023-03-25T15:25:50.153Z,99289.63
2023-03-25T15:28:21.525Z,99284.04
2023-03-25T15:31:09.725Z,99281.33
2023-03-25T15:33:34.958Z,99279.27
2023-03-25T15:36:11.181Z,99275.16
2023-03-25T15:38:46.272Z,99272.61
2023-03-25T15:41:27.001Z,99269.21
2023-03-25T15:44:07.648Z,99268.10
2023-03-25T15:46:59.925Z,99265.02
2023-03-25T15:49:23.088Z,99264.11
2023-03-25T15:52:10.136Z,99260.13
2023-03-25T15:54:32.968Z,99264.13
2023-03-25T15:56:48.219Z,99260.40
2023-03-25T15:59:20.921Z,99257.82
2023-03-25T16:01:39.383Z,99257.70
2023-03-25T16:04:04.860Z,99253.30
2023-03-25T16:06:18.180Z,99247.71
2023-03-25T16:08:34.980Z,99247.59
2023-03-25T16:10:47.634Z,99241.86
2023-03-25T16:13:07.609Z,99243.02
2023-03-25T16:15:28.482Z,99246.27
2023-03-25T16:17:42.700Z,99245.60
2023-03-25T16:19:56.877Z,99248.42
2023-03-25T16:22:15.454Z,99253.60
2023-03-25T16:24:34.238Z,99255.86
2023-03-25T16:26:49.166Z,99254.03
2023-03-25T16:29:22.410Z,99257.45
2023-03-25T16:31:42.741Z,99259.58
2023-03-25T16:34:00.295Z,99256.73
2023-03-25T16:36:17.559Z,99259.80
2023-03-25T16:38:31.719Z,99260.23
2023-03-25T16:40:46.805Z,99259.95
2023-03-25T16:43:07.794Z,99261.89
2023-03-25T16:45:21.000Z,99259.22
2023-03-25T16:47:33.921Z,99262.65
2023-03-25T16:49:49.315Z,99260.72
2023-03-25T16:52:07.931Z,99263.85
2023-03-25T16:54:28.168Z,99263.09
2023-03-25T16:56:43.246Z,99257.63
2023-03-25T16:59:04.531Z,99256.71
2023-03-25T17:01:17.332Z,99256.34
2023-03-25T17:03:44.908Z,99255.05
2023-03-25T17:06:04.662Z,99258.25
2023-03-25T17:08:19.653Z,99259.72
2023-03-25T17:10:46.101Z,99261.31
2023-03-25T17:13:08.587Z,99263.85
2023-03-25T17:15:22.020Z,99256.34
2023-03-25T17:17:51.681Z,99253.78
2023-03-25T17:20:08.865Z,99255.95
2023-03-25T17:22:28.325Z,99251.96
2023-03-25T17:24:42.918Z,99252.08
2023-03-25T17:27:04.086Z,99256.93
2023-03-25T17:29:18.102Z,99257.80
2023-03-25T17:31:30.707Z,99257.41
2023-03-25T17:33:57.968Z,99261.95
2023-03-25T17:36:11.508Z,99260.02
2023-03-25T17:38:33.867Z,99257.52
2023-03-25T17:40:46.535Z,99255.73
2023-03-25T17:42:59.116Z,99254.61
2023-03-25T17:45:16.309Z,99254.84
2023-03-25T17:47:28.880Z,99253.86
2023-03-25T17:49:41.513Z,99253.16
2023-03-25T17:51:54.087Z,99253.10
2023-03-25T17:54:06.702Z,99255.55
2023-03-25T17:56:25.035Z,99257.10
2023-03-25T17:58:40.108Z,99263.70
2023-03-25T18:00:53.098Z,99270.75
2023-03-25T18:03:11.501Z,99269.85
2023-03-25T18:05:24.055Z,99267.77
2023-03-25T18:07:36.735Z,99270.63
2023-03-25T18:09:49.238Z,99274.27
2023-03-25T18:12:02.313Z,99277.27
2023-03-25T18:14:15.060Z,99275.34
2023-03-25T18:16:27.674Z,99274.38
2023-03-25T18:18:40.352Z,99275.73
2023-03-25T18:21:03.749Z,99275.42
2023-03-25T18:23:16.739Z,99281.73
2023-03-25T18:25:29.488Z,99287.20
2023-03-25T18:27:44.297Z,99296.02
2023-03-25T18:29:57.155Z,99302.60
2023-03-25T18:32:09.637Z,99317.64
2023-03-25T18:34:24.544Z,99333.30
2023-03-25T18:36:37.506Z,99336.85
2023-03-25T18:38:50.101Z,99336.34
2023-03-25T18:41:03.425Z,99333.42
2023-03-25T18:43:16.274Z,99336.27
2023-03-25T18:45:28.952Z,99336.95
2023-03-25T18:47:41.568Z,99340.67
2023-03-25T18:49:55.106Z,99336.13
2023-03-25T18:52:07.620Z,99334.62
2023-03-25T18:54:20.234Z,99334.81
2023-03-25T18:56:32.844Z,99329.00
2023-03-25T18:58:45.912Z,99332.48
2023-03-25T19:01:00.224Z,99332.98
2023-03-25T19:03:14.567Z,99333.60
2023-03-25T19:05:27.559Z,99336.54
2023-03-25T19:07:40.630Z,99332.33
2023-03-25T19:09:54.156Z,99333.16
2023-03-25T19:12:06.769Z,99330.58
2023-03-25T19:14:19.316Z,99333.02
2023-03-25T19:16:32.226Z,99333.70
2023-03-25T19:18:44.896Z,99334.30
2023-03-25T19:20:57.905Z,99333.55
2023-03-25T19:23:11.948Z,99333.15
2023-03-25T19:25:24.969Z,99336.35
2023-03-25T19:27:37.745Z,99332.65
2023-03-25T19:29:50.339Z,99332.58
2023-03-25T19:32:02.988Z,99333.80
2023-03-25T19:34:16.621Z,99339.75
2023-03-25T19:36:34.583Z,99341.87
2023-03-25T19:38:47.104Z,99343.36
2023-03-25T19:41:08.496Z,99342.09
2023-03-25T19:43:21.081Z,99345.33
2023-03-25T19:45:34.313Z,99344.27
2023-03-25T19:47:47.654Z,99342.61
2023-03-25T19:50:00.285Z,99339.59
2023-03-25T19:52:13.005Z,99336.66
2023-03-25T19:54:25.636Z,99337.95
2023-03-25T19:56:38.161Z,99337.77
2023-03-25T19:58:50.813Z,99337.66
2023-03-25T20:01:03.436Z,99338.06
2023-03-25T20:03:16.079Z,99341.98
2023-03-25T20:05:31.086Z,99337.64
2023-03-25T20:07:45.548Z,99332.81
2023-03-25T20:10:04.367Z,99330.15
2023-03-25T20:12:22.891Z,99333.49
2023-03-25T20:14:35.969Z,99338.34
2023-03-25T20:16:48.822Z,99336.22
2023-03-25T20:19:01.669Z,99338.31
2023-03-25T20:21:14.363Z,99340.17
2023-03-25T20:23:27.030Z,99342.55
2023-03-25T20:25:39.852Z,99343.70
2023-03-25T20:27:52.590Z,99339.33
2023-03-25T20:30:07.297Z,99338.66
2023-03-25T20:32:21.609Z,99337.96
2023-03-25T20:34:34.635Z,99339.52
2023-03-25T20:36:48.222Z,99340.34
2023-03-25T20:39:05.364Z,99336.14
2023-03-25T20:41:18.321Z,99329.56
2023-03-25T20:43:31.282Z,99331.87
2023-03-25T20:45:43.908Z,99325.45
2023-03-25T20:47:57.645Z,99325.19
2023-03-25T20:50:12.943Z,99323.63
2023-03-25T20:52:25.745Z,99317.43
2023-03-25T20:54:38.317Z,99321.92
2023-03-25T20:56:51.726Z,99323.09
2023-03-25T20:59:05.430Z,99323.16
2023-03-25T21:01:18.378Z,99320.98
2023-03-25T21:03:32.361Z,99320.16
2023-03-25T21:05:45.391Z,99317.73
2023-03-25T21:07:57.968Z,99323.61
2023-03-25T21:10:11.010Z,99320.36
2023-03-25T21:12:32.905Z,99324.25
2023-03-25T21:14:54.338Z,99324.98
2023-03-25T21:17:06.938Z,99325.52
2023-03-25T21:19:19.692Z,99323.05
2023-03-25T21:21:32.426Z,99323.08
2023-03-25T21:23:45.015Z,99325.29
2023-03-25T21:26:02.752Z,99325.95
2023-03-25T21:28:18.094Z,99325.08
2023-03-25T21:30:32.019Z,99322.64
2023-03-25T21:32:44.679Z,99326.29
2023-03-25T21:34:59.551Z,99326.07
2023-03-25T21:37:12.147Z,99331.73
2023-03-25T21:39:24.760Z,99326.73
2023-03-25T21:41:37.751Z,99326.33
2023-03-25T21:43:50.777Z,99327.53
2023-03-25T21:46:06.144Z,99327.79
2023-03-25T21:48:21.419Z,99322.58
2023-03-25T21:50:36.293Z,99325.05
2023-03-25T21:52:48.860Z,99321.16
2023-03-25T21:55:02.148Z,99321.42
2023-03-25T21:57:14.765Z,99322.46
2023-03-25T21:59:27.606Z,99322.93
2023-03-25T22:01:42.405Z,99320.82
2023-03-25T22:03:57.197Z,99317.58
2023-03-25T22:06:12.875Z,99319.77
2023-03-25T22:08:25.407Z,99320.94
2023-03-25T22:10:37.986Z,99319.59
2023-03-25T22:12:51.076Z,99315.85
2023-03-25T22:15:04.004Z,99306.51
2023-03-25T22:17:16.580Z,99305.21
2023-03-25T22:19:30.975Z,99300.63
2023-03-25T22:21:43.566Z,99298.95
2023-03-25T22:23:59.222Z,99301.39
2023-03-25T22:26:13.174Z,99299.34
2023-03-25T22:28:26.487Z,99294.86
2023-03-25T22:30:39.775Z,99294.86
2023-03-25T22:32:52.333Z,99294.51
2023-03-25T22:35:05.528Z,99294.23
2023-03-25T22:37:18.154Z,99291.86
2023-03-25T22:39:30.875Z,99286.85
2023-03-25T22:41:43.899Z,99287.65
2023-03-25T22:43:56.586Z,99288.14
2023-03-25T22:46:09.657Z,99286.05
2023-03-25T22:48:22.214Z,99290.12
2023-03-25T22:50:34.853Z,99286.21
2023-03-25T22:52:47.376Z,99285.21
2023-03-25T22:55:00.232Z,99282.34
2023-03-25T22:57:13.139Z,99284.21
2023-03-25T22:59:25.856Z,99284.75
2023-03-25T23:01:38.948Z,99283.15
2023-03-25T23:03:53.924Z,99285.77
2023-03-25T23:06:08.570Z,99283.59
2023-03-25T23:08:21.276Z,99281.58
2023-03-25T23:10:34.012Z,99278.02
2023-03-25T23:12:46.976Z,99284.53
2023-03-25T23:14:59.517Z,99286.23
2023-03-25T23:17:12.603Z,99279.32
2023-03-25T23:19:25.231Z,99280.23
2023-03-25T23:21:38.273Z,99280.19
2023-03-25T23:23:54.314Z,99278.39
2023-03-25T23:26:13.464Z,99278.45
2023-03-25T23:28:26.768Z,99274.18
2023-03-25T23:30:45.611Z,99272.94
2023-03-25T23:32:58.226Z,99269.08
2023-03-25T23:35:10.915Z,99264.11
2023-03-25T23:37:26.185Z,99267.13
2023-03-25T23:39:40.361Z,99264.89
2023-03-25T23:41:54.251Z,99267.61
2023-03-25T23:44:06.904Z,99264.20
2023-03-25T23:46:21.154Z,99262.92
2023-03-25T23:48:40.609Z,99260.76
2023-03-25T23:50:54.606Z,99261.52
2023-03-25T23:53:07.139Z,99264.16
2023-03-25T23:55:20.586Z,99265.05
2023-03-25T23:57:33.208Z,99264.17
2023-03-25T23:59:46.409Z,99266.75
